Time;durP1;ratioP1;P1;durP2;ratioP2;P2;SDS_P1;SDS_P2;PMS_P1;PMS_P2;Temp;Humidity;BMP_temperature;BMP_pressure;BME280_temperature;BME280_humidity;BME280_pressure;Samples;Min_cycle;Max_cycle;Signal;HPM_P1;HPM_P2
2021/09/17 00:00:40;;;;;;;10.52;8.05;;;;;;;20.83;51.67;100149.09;5052924;28;20040;-22
2021/09/17 00:03:05;;;;;;;12.60;8.95;;;;;;;20.81;51.80;100140.44;5070763;28;20064;-21
2021/09/17 00:05:31;;;;;;;14.15;8.00;;;;;;;20.74;52.20;100139.97;5070772;28;20036;-21
2021/09/17 00:07:57;;;;;;;14.77;8.05;;;;;;;20.91;51.28;100138.72;5052770;28;20424;-21
2021/09/17 00:10:22;;;;;;;10.25;8.50;;;;;;;21.03;51.34;100139.16;5070327;28;20032;-22
2021/09/17 00:12:48;;;;;;;13.13;8.60;;;;;;;20.94;51.29;100143.56;5052919;28;20040;-22
2021/09/17 00:15:14;;;;;;;12.70;8.98;;;;;;;20.89;51.92;100135.50;5070732;28;20477;-21
2021/09/17 00:17:39;;;;;;;14.35;8.77;;;;;;;20.90;51.40;100146.03;5070578;28;20033;-21
2021/09/17 00:20:05;;;;;;;30.38;10.93;;;;;;;20.77;51.53;100133.97;5070642;28;20028;-22
2021/09/17 00:22:31;;;;;;;13.45;8.95;;;;;;;20.60;52.08;100125.47;5070170;28;20028;-22
2021/09/17 00:24:57;;;;;;;12.52;8.70;;;;;;;20.88;51.07;100142.81;5070254;28;20021;-22
2021/09/17 00:27:22;;;;;;;12.60;8.98;;;;;;;20.72;51.22;100139.44;5070204;28;20028;-22
2021/09/17 00:29:48;;;;;;;14.57;8.80;;;;;;;20.77;51.89;100138.59;5070585;28;20130;-22
2021/09/17 00:32:13;;;;;;;14.98;9.48;;;;;;;20.96;51.68;100139.47;5070108;28;20094;-22
2021/09/17 00:34:39;;;;;;;17.15;9.80;;;;;;;20.84;51.49;100144.47;5052246;28;20529;-22
2021/09/17 00:37:05;;;;;;;12.93;9.05;;;;;;;21.00;51.26;100142.44;5069625;28;20031;-22
2021/09/17 00:39:30;;;;;;;12.55;8.77;;;;;;;21.19;50.62;100129.75;5069963;28;20024;-22
2021/09/17 00:41:57;;;;;;;14.15;8.63;;;;;;;20.86;51.54;100148.53;5069790;28;20067;-22
2021/09/17 00:44:23;;;;;;;12.77;8.90;;;;;;;20.77;52.05;100144.81;5069635;28;20844;-22
2021/09/17 00:46:49;;;;;;;14.10;9.65;;;;;;;20.46;53.13;100150.44;5069824;28;20110;-22
2021/09/17 00:49:15;;;;;;;11.02;8.63;;;;;;;20.71;52.18;100150.56;5069875;28;20097;-22
2021/09/17 00:51:41;;;;;;;11.35;8.57;;;;;;;20.53;52.12;100142.00;5069909;28;20042;-22
2021/09/17 00:54:06;;;;;;;13.27;8.95;;;;;;;20.54;52.15;100129.28;5069898;28;20543;-22
2021/09/17 00:56:33;;;;;;;11.90;9.50;;;;;;;20.17;53.34;100125.22;5069344;28;20040;-22
2021/09/17 00:58:59;;;;;;;11.35;8.68;;;;;;;20.04;53.43;100115.81;5069258;28;20052;-21
2021/09/17 01:01:24;;;;;;;12.80;10.63;;;;;;;20.02;53.51;100113.41;5070050;28;20036;-22
2021/09/17 01:03:50;;;;;;;13.98;10.88;;;;;;;20.13;53.59;100107.94;5069773;28;20043;-22
2021/09/17 01:06:15;;;;;;;18.40;11.98;;;;;;;20.19;53.20;100117.63;5069175;28;20037;-21
2021/09/17 01:08:41;;;;;;;13.57;11.45;;;;;;;20.53;52.56;100133.06;5069285;28;20028;-22
2021/09/17 01:11:06;;;;;;;15.60;11.38;;;;;;;20.39;52.68;100122.91;5069409;28;20024;-22
2021/09/17 01:13:31;;;;;;;13.50;10.38;;;;;;;20.56;51.91;100137.94;5051794;28;20068;-22
2021/09/17 01:15:57;;;;;;;13.15;10.48;;;;;;;20.40;52.82;100132.63;5069644;28;20148;-22
2021/09/17 01:18:23;;;;;;;13.18;10.60;;;;;;;20.18;53.71;100127.63;5069005;28;20028;-22
2021/09/17 01:20:48;;;;;;;17.00;11.02;;;;;;;20.23;53.57;100124.09;5069393;28;20028;-22
2021/09/17 01:23:14;;;;;;;19.65;11.60;;;;;;;19.93;53.83;100125.09;5069148;28;20037;-22
2021/09/17 01:25:39;;;;;;;15.52;10.40;;;;;;;19.99;53.89;100108.53;5069155;28;20032;-21
2021/09/17 01:28:05;;;;;;;11.95;9.88;;;;;;;20.46;53.14;100115.25;5068666;28;20111;-22
2021/09/17 01:30:30;;;;;;;12.77;9.88;;;;;;;20.24;53.22;100104.03;5068954;28;20089;-22
2021/09/17 01:32:56;;;;;;;15.52;10.48;;;;;;;20.32;53.30;100116.97;5067878;28;20032;-22
2021/09/17 01:35:22;;;;;;;12.90;9.85;;;;;;;20.02;54.20;100102.56;5069202;28;20039;-22
2021/09/17 01:37:48;;;;;;;11.43;9.65;;;;;;;19.95;53.71;100093.94;5051195;28;20785;-22
2021/09/17 01:40:14;;;;;;;14.00;8.95;;;;;;;19.62;54.61;100092.75;5068812;28;20510;-22
2021/09/17 01:42:40;;;;;;;14.13;9.95;;;;;;;19.57;54.93;100090.88;5069062;28;20046;-22
2021/09/17 01:45:06;;;;;;;13.10;9.60;;;;;;;19.57;55.46;100104.38;5068898;28;20036;-21
2021/09/17 01:47:31;;;;;;;13.07;9.48;;;;;;;19.63;53.26;100089.75;5068960;28;20103;-22
2021/09/17 01:49:57;;;;;;;13.80;9.63;;;;;;;19.58;53.49;100103.31;5069098;28;20119;-22
2021/09/17 01:52:23;;;;;;;13.10;9.35;;;;;;;19.70;53.14;100094.09;5068635;28;20029;-21
2021/09/17 01:54:48;;;;;;;13.13;9.77;;;;;;;19.78;53.99;100091.63;5050913;28;20025;-22
2021/09/17 01:57:14;;;;;;;13.60;9.80;;;;;;;19.47;53.35;100099.03;5050783;28;20036;-21
2021/09/17 01:59:39;;;;;;;12.05;8.88;;;;;;;19.28;55.45;100080.72;5068540;28;20114;-22
2021/09/17 02:02:05;;;;;;;12.20;8.93;;;;;;;19.30;55.44;100085.06;5068882;28;20032;-21
2021/09/17 02:04:30;;;;;;;13.35;10.23;;;;;;;19.31;55.09;100079.38;5068671;28;20066;-21
2021/09/17 02:06:56;;;;;;;13.63;9.60;;;;;;;19.03;55.74;100083.53;5068846;28;20029;-21
2021/09/17 02:09:21;;;;;;;13.35;9.98;;;;;;;19.39;54.61;100083.38;5068555;28;20036;-21
2021/09/17 02:11:47;;;;;;;14.38;10.10;;;;;;;19.23;55.09;100083.47;5068811;28;20060;-21
2021/09/17 02:14:13;;;;;;;12.68;9.40;;;;;;;19.25;54.87;100089.41;5068607;28;20110;-21
2021/09/17 02:16:39;;;;;;;13.77;10.70;;;;;;;19.19;55.34;100081.59;5068973;28;20506;-22
2021/09/17 02:19:05;;;;;;;14.35;10.38;;;;;;;19.51;54.36;100059.53;5068731;28;20032;-22
2021/09/17 02:21:30;;;;;;;15.30;10.27;;;;;;;19.35;54.85;100060.69;5050604;28;20037;-21
2021/09/17 02:23:56;;;;;;;14.70;9.68;;;;;;;19.65;54.01;100063.22;5068446;28;20033;-21
2021/09/17 02:26:21;;;;;;;13.15;10.30;;;;;;;19.65;53.83;100055.13;5068409;28;20078;-21
2021/09/17 02:28:47;;;;;;;13.23;9.52;;;;;;;19.81;53.57;100060.47;5068410;28;20077;-21
2021/09/17 02:31:13;;;;;;;16.13;9.75;;;;;;;19.55;54.19;100066.00;5068705;28;20040;-21
2021/09/17 02:33:38;;;;;;;14.93;10.48;;;;;;;19.30;53.92;100060.72;5068679;28;20033;-21
2021/09/17 02:36:04;;;;;;;15.27;10.55;;;;;;;19.56;52.64;100083.84;5068851;28;20028;-21
2021/09/17 02:38:29;;;;;;;22.63;11.07;;;;;;;19.61;52.45;100086.53;5067968;28;20714;-22
2021/09/17 02:40:55;;;;;;;17.02;11.23;;;;;;;19.52;53.90;100077.38;5071610;28;20553;-21
2021/09/17 02:43:20;;;;;;;13.27;10.60;;;;;;;18.79;56.04;100076.00;5072321;28;20848;-22
2021/09/17 02:45:46;;;;;;;15.02;10.50;;;;;;;18.30;57.77;100064.94;5072046;28;20103;-21
2021/09/17 02:48:11;;;;;;;15.95;10.13;;;;;;;18.63;56.12;100063.56;5072427;28;20484;-21
2021/09/17 02:50:37;;;;;;;13.98;10.82;;;;;;;18.79;55.06;100054.38;5072101;28;20121;-21
2021/09/17 02:53:04;;;;;;;13.73;10.93;;;;;;;18.77;56.58;100071.94;5054429;28;20075;-22
2021/09/17 02:55:29;;;;;;;13.60;10.70;;;;;;;18.61;55.83;100068.44;5070897;28;20782;-22
2021/09/17 02:57:55;;;;;;;15.57;11.88;;;;;;;18.99;54.86;100069.75;5071606;28;20036;-21
2021/09/17 03:00:20;;;;;;;17.67;11.00;;;;;;;19.04;55.02;100067.03;5071669;28;20052;-21
2021/09/17 03:02:46;;;;;;;14.90;10.82;;;;;;;18.49;57.09;100039.03;5054198;28;20059;-21
2021/09/17 03:05:12;;;;;;;15.45;11.45;;;;;;;18.47;57.20;100047.41;5071970;28;20036;-22
2021/09/17 03:07:37;;;;;;;15.10;10.88;;;;;;;18.57;55.44;100064.66;5071792;28;20024;-22
2021/09/17 03:10:04;;;;;;;14.85;11.88;;;;;;;18.86;54.93;100046.81;5071873;28;20518;-22
2021/09/17 03:12:29;;;;;;;16.33;11.05;;;;;;;18.82;56.08;100067.34;5071467;28;20040;-22
2021/09/17 03:14:55;;;;;;;15.18;11.63;;;;;;;18.37;56.87;100063.59;5071535;28;20404;-21
2021/09/17 03:17:20;;;;;;;16.50;11.20;;;;;;;18.26;55.95;100095.16;5071553;28;20074;-21
2021/09/17 03:19:46;;;;;;;21.85;11.65;;;;;;;18.54;56.42;100076.00;5071635;28;20484;-22
2021/09/17 03:22:11;;;;;;;18.02;11.73;;;;;;;18.34;56.61;100083.03;5071148;28;20032;-21
2021/09/17 03:24:37;;;;;;;15.20;11.73;;;;;;;18.40;55.24;100092.75;5071521;28;20035;-22
2021/09/17 03:27:02;;;;;;;17.33;11.73;;;;;;;18.39;56.77;100066.84;5071355;28;20036;-22
2021/09/17 03:29:28;;;;;;;16.30;11.60;;;;;;;17.95;57.30;100067.34;5071328;28;20080;-21
2021/09/17 03:31:54;;;;;;;16.38;12.02;;;;;;;17.37;59.54;100051.28;5071175;28;20067;-21
2021/09/17 03:34:19;;;;;;;18.35;12.00;;;;;;;17.28;60.25;100058.22;5070855;28;20032;-21
2021/09/17 03:36:44;;;;;;;19.70;12.82;;;;;;;17.64;60.07;100064.56;5071086;28;20035;-21
2021/09/17 03:39:13;;;;;;;20.60;12.30;;;;;;;17.64;59.86;100045.69;5071146;28;20550;-21
2021/09/17 03:41:39;;;;;;;23.48;13.20;;;;;;;17.87;58.43;100043.59;5071161;28;20106;-21
2021/09/17 03:44:05;;;;;;;26.83;12.55;;;;;;;18.06;56.68;100047.41;5071586;28;20484;-22
2021/09/17 03:46:31;;;;;;;18.50;12.77;;;;;;;18.27;57.41;100058.22;5070868;28;20039;-22
2021/09/17 03:48:56;;;;;;;32.58;13.15;;;;;;;17.83;58.82;100047.91;5071132;28;20029;-21
2021/09/17 03:51:22;;;;;;;19.08;13.07;;;;;;;17.56;59.62;100021.94;5070655;28;20404;-21
2021/09/17 03:53:47;;;;;;;17.30;12.73;;;;;;;17.53;59.52;100030.56;5071210;28;20063;-21
2021/09/17 03:56:13;;;;;;;18.70;12.60;;;;;;;17.75;58.88;100045.69;5070727;28;20087;-21
2021/09/17 03:58:38;;;;;;;24.45;13.30;;;;;;;17.69;59.63;100050.28;5070517;28;20091;-21
2021/09/17 04:01:04;;;;;;;20.77;12.98;;;;;;;17.85;58.86;100059.25;5070874;28;20059;-21
2021/09/17 04:03:29;;;;;;;22.48;13.32;;;;;;;17.87;59.74;100049.78;5070967;28;20632;-21
2021/09/17 04:05:55;;;;;;;20.17;12.38;;;;;;;17.68;60.46;100054.06;5070665;28;20095;-22
2021/09/17 04:08:20;;;;;;;18.15;12.25;;;;;;;17.77;59.89;100059.72;5070360;28;20029;-21
2021/09/17 04:10:46;;;;;;;19.45;13.07;;;;;;;17.41;59.96;100056.94;5070861;28;20062;-22
2021/09/17 04:13:11;;;;;;;21.38;12.77;;;;;;;18.03;57.16;100072.22;5070813;28;20147;-21
2021/09/17 04:15:37;;;;;;;21.38;14.20;;;;;;;18.02;58.36;100069.78;5070523;28;20025;-21
2021/09/17 04:18:02;;;;;;;18.40;13.05;;;;;;;17.79;59.10;100074.56;5070434;28;20028;-21
2021/09/17 04:20:28;;;;;;;25.38;13.98;;;;;;;17.78;58.83;100070.25;5070271;28;20469;-21
2021/09/17 04:22:53;;;;;;;26.27;15.27;;;;;;;17.44;60.40;100067.19;5070483;28;20040;-21
2021/09/17 04:25:20;;;;;;;26.08;16.38;;;;;;;17.56;59.72;100067.78;5070367;28;20035;-21
2021/09/17 04:27:45;;;;;;;37.63;16.85;;;;;;;17.65;59.62;100066.19;5070191;28;20486;-21
2021/09/17 04:30:13;;;;;;;29.63;15.52;;;;;;;17.51;59.59;100059.69;5070016;28;20033;-21
2021/09/17 04:32:39;;;;;;;24.27;14.15;;;;;;;17.92;58.48;100065.19;5070187;28;20028;-21
2021/09/17 04:35:05;;;;;;;24.33;15.00;;;;;;;17.91;57.67;100050.06;5070229;28;20082;-21
2021/09/17 04:37:31;;;;;;;27.73;15.02;;;;;;;18.13;57.44;100062.53;5052429;28;20514;-21
2021/09/17 04:39:56;;;;;;;23.92;14.35;;;;;;;18.18;56.52;100054.41;5070219;28;20028;-22
2021/09/17 04:42:22;;;;;;;28.10;14.40;;;;;;;18.36;56.49;100082.75;5069697;28;20028;-21
2021/09/17 04:44:47;;;;;;;22.98;14.73;;;;;;;18.40;55.90;100073.84;5070297;28;20089;-21
2021/09/17 04:47:13;;;;;;;22.20;13.18;;;;;;;18.46;55.97;100088.97;5051986;28;20508;-21
2021/09/17 04:49:38;;;;;;;104.97;20.65;;;;;;;18.54;55.98;100089.53;5069758;28;20021;-21
2021/09/17 04:52:04;;;;;;;24.50;12.38;;;;;;;18.68;55.84;100079.78;5069853;28;20408;-21
2021/09/17 04:54:29;;;;;;;17.70;11.90;;;;;;;18.51;55.54;100052.25;5069727;28;20035;-22
2021/09/17 04:56:55;;;;;;;21.88;12.57;;;;;;;18.55;56.47;100085.72;5069516;28;20050;-21
2021/09/17 04:59:20;;;;;;;22.25;11.65;;;;;;;18.50;57.08;100078.44;5069617;28;20064;-21
2021/09/17 05:01:47;;;;;;;15.73;11.65;;;;;;;18.45;57.69;100084.66;5069070;28;20032;-21
2021/09/17 05:04:12;;;;;;;21.63;12.38;;;;;;;18.47;58.08;100074.41;5069097;28;20036;-21
2021/09/17 05:06:38;;;;;;;22.65;12.35;;;;;;;18.23;58.58;100073.31;5069614;28;20028;-21
2021/09/17 05:09:03;;;;;;;17.10;11.70;;;;;;;18.47;57.40;100058.19;5051343;28;20032;-22
2021/09/17 05:11:29;;;;;;;24.50;12.10;;;;;;;18.94;56.67;100071.63;5069614;28;20408;-22
2021/09/17 05:13:54;;;;;;;22.45;13.13;;;;;;;19.24;54.97;100066.13;5069345;28;20040;-22
2021/09/17 05:16:20;;;;;;;24.45;12.85;;;;;;;19.45;55.16;100071.44;5068914;28;20113;-22
2021/09/17 05:18:46;;;;;;;20.60;12.23;;;;;;;19.35;54.54;100072.34;5069088;28;20441;-22
2021/09/17 05:21:12;;;;;;;26.48;13.07;;;;;;;19.59;54.72;100071.66;5069065;28;20033;-22
2021/09/17 05:23:37;;;;;;;20.05;12.77;;;;;;;19.76;54.04;100087.59;5069124;28;20042;-21
2021/09/17 05:26:03;;;;;;;23.80;12.10;;;;;;;20.04;54.40;100078.75;5069017;28;20028;-21
2021/09/17 05:28:29;;;;;;;21.40;12.80;;;;;;;20.14;53.57;100082.44;5067736;28;20484;-21
2021/09/17 05:30:55;;;;;;;21.05;13.68;;;;;;;20.15;54.17;100079.47;5069389;28;20040;-21
2021/09/17 05:33:20;;;;;;;24.92;14.60;;;;;;;19.93;53.82;100076.38;5069378;28;20393;-22
2021/09/17 05:35:46;;;;;;;19.58;13.20;;;;;;;19.77;54.96;100064.84;5068872;28;20484;-21
2021/09/17 05:38:11;;;;;;;27.25;14.27;;;;;;;19.43;55.48;100058.22;5068612;28;20373;-22
2021/09/17 05:40:37;;;;;;;23.70;14.95;;;;;;;19.51;55.85;100070.34;5068756;28;20020;-22
2021/09/17 05:43:02;;;;;;;16.65;11.75;;;;;;;19.85;55.75;100075.06;5068999;28;20032;-22
2021/09/17 05:45:27;;;;;;;16.45;11.23;;;;;;;20.32;54.82;100084.47;5068946;28;20110;-21
2021/09/17 05:47:53;;;;;;;14.05;10.75;;;;;;;20.33;54.79;100075.28;5069080;28;20039;-22
2021/09/17 05:50:18;;;;;;;13.00;10.63;;;;;;;20.19;55.09;100055.34;5068496;28;20056;-22
2021/09/17 05:52:44;;;;;;;15.07;10.63;;;;;;;20.45;54.47;100078.41;5068657;28;20036;-22
2021/09/17 05:55:10;;;;;;;14.68;9.68;;;;;;;20.48;54.80;100069.72;5068625;28;20036;-22
2021/09/17 05:57:36;;;;;;;14.30;10.95;;;;;;;20.25;55.26;100084.00;5068611;28;20032;-22
2021/09/17 06:00:01;;;;;;;16.42;11.77;;;;;;;20.08;56.37;100084.38;5068589;28;20063;-22
2021/09/17 06:02:27;;;;;;;15.45;11.07;;;;;;;20.12;56.47;100087.34;5068499;28;20064;-21
2021/09/17 06:04:52;;;;;;;16.83;11.10;;;;;;;20.32;55.93;100073.66;5068699;28;20033;-21
2021/09/17 06:07:18;;;;;;;21.75;10.98;;;;;;;20.52;56.09;100078.09;5068888;28;20056;-22
2021/09/17 06:09:43;;;;;;;16.45;10.60;;;;;;;20.86;55.17;100075.34;5068698;28;20395;-22
2021/09/17 06:12:09;;;;;;;15.15;10.43;;;;;;;21.36;53.56;100079.66;5068944;28;20072;-22
2021/09/17 06:14:34;;;;;;;11.95;9.38;;;;;;;21.40;53.54;100076.06;5071408;28;20089;-22
2021/09/17 06:17:00;;;;;;;17.50;10.80;;;;;;;20.79;55.32;100055.91;5072450;28;20054;-21
2021/09/17 06:19:25;;;;;;;16.98;10.50;;;;;;;21.05;55.20;100058.34;5072878;28;20488;-22
2021/09/17 06:21:51;;;;;;;13.57;10.30;;;;;;;21.60;53.57;100069.59;5072651;28;20034;-22
2021/09/17 06:24:16;;;;;;;13.32;9.90;;;;;;;21.72;53.56;100076.50;5072250;28;20105;-21
2021/09/17 06:26:42;;;;;;;14.80;9.35;;;;;;;21.50;53.31;100053.47;5072550;28;20131;-22
2021/09/17 06:29:08;;;;;;;15.65;9.65;;;;;;;22.11;52.49;100070.78;5072474;28;20035;-22
2021/09/17 06:31:34;;;;;;;14.73;8.73;;;;;;;22.10;53.06;100071.06;5072266;28;20020;-22
2021/09/17 06:34:00;;;;;;;13.32;9.75;;;;;;;22.38;51.87;100086.38;5072242;28;20101;-22
2021/09/17 06:36:25;;;;;;;14.77;9.85;;;;;;;22.67;50.91;100082.63;5072266;28;20072;-22
2021/09/17 06:38:51;;;;;;;12.57;9.57;;;;;;;22.66;50.20;100084.56;5072609;28;20036;-22
2021/09/17 06:41:16;;;;;;;13.55;9.23;;;;;;;21.85;52.91;100079.28;5072438;28;20064;-22
2021/09/17 06:43:42;;;;;;;13.15;9.80;;;;;;;21.85;53.32;100081.22;5072150;28;20044;-23
2021/09/17 06:46:07;;;;;;;15.02;10.18;;;;;;;22.35;51.45;100078.00;5072027;28;20089;-23
2021/09/17 06:48:33;;;;;;;18.10;11.02;;;;;;;22.39;52.01;100071.72;5071901;28;20105;-22
2021/09/17 06:50:59;;;;;;;12.90;9.32;;;;;;;22.19;52.50;100063.84;5072142;28;20025;-22
2021/09/17 06:53:24;;;;;;;14.50;10.10;;;;;;;22.48;51.74;100088.13;5072014;28;20028;-22
2021/09/17 06:55:50;;;;;;;13.27;9.90;;;;;;;22.82;50.54;100081.53;5072068;28;20028;-23
2021/09/17 06:58:16;;;;;;;13.68;10.35;;;;;;;23.09;49.68;100080.81;5071382;28;20529;-23
2021/09/17 07:00:42;;;;;;;13.68;9.30;;;;;;;23.34;48.27;100075.94;5054720;28;20475;-22
2021/09/17 07:03:07;;;;;;;13.57;8.95;;;;;;;23.45;48.89;100085.50;5071764;28;20036;-22
2021/09/17 07:05:33;;;;;;;14.43;10.13;;;;;;;23.53;49.02;100082.06;5071946;28;20052;-22
2021/09/17 07:08:09;;;;;;;13.43;9.82;;;;;;;23.16;49.36;100075.75;5072158;28;20117;-22
2021/09/17 07:10:36;;;;;;;14.00;9.38;;;;;;;23.03;49.54;100082.00;5071697;28;20028;-23
2021/09/17 07:13:01;;;;;;;15.20;9.60;;;;;;;22.76;50.44;100083.56;5071568;28;20457;-23
2021/09/17 07:15:27;;;;;;;14.00;9.77;;;;;;;22.86;49.63;100077.09;5053598;28;20028;-23
2021/09/17 07:17:53;;;;;;;17.30;10.57;;;;;;;23.09;50.00;100079.97;5053626;28;20396;-22
2021/09/17 07:20:18;;;;;;;13.27;9.88;;;;;;;23.21;48.60;100083.00;5071273;28;20037;-22
2021/09/17 07:22:44;;;;;;;17.77;10.63;;;;;;;23.63;47.75;100073.66;5071204;28;20029;-22
2021/09/17 07:25:10;;;;;;;14.32;9.63;;;;;;;23.58;47.56;100065.63;5070492;28;20035;-22
2021/09/17 07:27:35;;;;;;;12.98;9.90;;;;;;;23.36;49.28;100079.19;5071311;28;20108;-23
2021/09/17 07:30:01;;;;;;;17.63;10.25;;;;;;;23.19;49.70;100083.31;5071546;28;20351;-23
2021/09/17 07:32:26;;;;;;;20.45;10.52;;;;;;;23.39;49.18;100065.75;5053350;28;20028;-22
2021/09/17 07:34:53;;;;;;;15.13;10.32;;;;;;;23.65;49.12;100060.56;5071439;28;20495;-23
2021/09/17 07:37:19;;;;;;;16.23;10.07;;;;;;;23.58;49.27;100064.81;5071190;28;20024;-22
2021/09/17 07:39:45;;;;;;;16.27;10.00;;;;;;;23.27;49.77;100065.47;5071320;28;20028;-22
2021/09/17 07:42:10;;;;;;;14.43;10.75;;;;;;;23.19;50.64;100063.44;5070983;28;20115;-22
2021/09/17 07:44:37;;;;;;;13.02;11.00;;;;;;;23.60;49.00;100068.84;5071064;28;20036;-22
2021/09/17 07:47:03;;;;;;;16.30;10.93;;;;;;;23.29;48.97;100057.00;5071193;28;20033;-23
2021/09/17 07:49:29;;;;;;;15.47;10.67;;;;;;;23.15;48.86;100049.66;5067346;28;20051;-22
2021/09/17 07:51:55;;;;;;;13.98;11.00;;;;;;;23.52;49.05;100058.69;5070752;28;20500;-23
2021/09/17 07:54:20;;;;;;;18.00;10.75;;;;;;;23.51;48.43;100057.06;5070526;28;20028;-23
2021/09/17 07:56:46;;;;;;;15.23;11.07;;;;;;;23.80;48.55;100056.72;5070624;28;20489;-23
2021/09/17 07:59:11;;;;;;;14.48;10.07;;;;;;;23.47;49.08;100037.00;5070705;28;20048;-22
2021/09/17 08:01:37;;;;;;;17.30;11.30;;;;;;;23.44;48.98;100037.63;5070806;28;20483;-22
2021/09/17 08:04:02;;;;;;;18.08;11.18;;;;;;;23.38;48.84;100033.41;5070657;28;20047;-22
2021/09/17 08:06:28;;;;;;;19.92;11.98;;;;;;;23.74;48.33;100041.59;5070363;28;20025;-22
2021/09/17 08:08:53;;;;;;;26.73;14.13;;;;;;;23.85;48.77;100042.19;5066425;28;20030;-21
2021/09/17 08:11:19;;;;;;;17.60;10.98;;;;;;;23.81;47.87;100042.00;5067666;28;20024;-22
2021/09/17 08:13:45;;;;;;;22.52;12.95;;;;;;;23.72;48.11;100029.38;5070330;28;20039;-21
2021/09/17 08:16:10;;;;;;;16.67;11.75;;;;;;;23.75;47.63;100036.94;5070503;28;20723;-22
2021/09/17 08:18:36;;;;;;;15.75;11.95;;;;;;;23.45;48.67;100026.41;5070327;28;20025;-22
2021/09/17 08:21:01;;;;;;;19.95;11.88;;;;;;;23.53;49.42;100016.72;5070272;28;20107;-22
2021/09/17 08:23:27;;;;;;;17.30;11.70;;;;;;;23.65;48.97;100030.59;5070299;28;20118;-22
2021/09/17 08:25:56;;;;;;;28.63;17.20;;;;;;;23.41;49.44;100027.34;5070058;28;20393;-22
2021/09/17 08:28:22;;;;;;;23.52;16.52;;;;;;;23.63;49.76;100024.66;5069632;28;20032;-22
2021/09/17 08:30:48;;;;;;;18.42;11.18;;;;;;;23.45;48.71;100001.13;5070220;28;20055;-22
2021/09/17 08:33:13;;;;;;;16.77;12.52;;;;;;;23.59;49.63;100001.09;5070166;28;20484;-22
2021/09/17 08:35:39;;;;;;;18.25;13.25;;;;;;;23.82;48.90;99999.22;5069954;28;20025;-22
2021/09/17 08:38:04;;;;;;;24.35;12.63;;;;;;;23.99;48.41;99977.56;5068439;28;20037;-23
2021/09/17 08:40:30;;;;;;;20.02;12.15;;;;;;;24.44;48.63;99985.66;5069579;28;20032;-23
2021/09/17 08:42:59;;;;;;;32.53;21.08;;;;;;;24.67;47.85;99991.06;5069874;28;20033;-22
2021/09/17 08:45:25;;;;;;;29.27;18.00;;;;;;;24.01;47.81;99977.25;5052380;28;20029;-23
2021/09/17 08:47:51;;;;;;;16.98;11.65;;;;;;;24.17;48.59;99973.03;5069958;28;20039;-22
2021/09/17 08:50:17;;;;;;;17.98;12.32;;;;;;;24.69;46.84;99971.69;5069435;28;20025;-22
2021/09/17 08:52:42;;;;;;;16.85;11.43;;;;;;;24.86;44.27;99980.69;5069904;28;20039;-23
2021/09/17 08:55:08;;;;;;;17.35;12.45;;;;;;;25.41;44.23;99981.31;5069646;28;20028;-22
2021/09/17 08:57:34;;;;;;;17.48;12.02;;;;;;;25.33;43.50;99965.72;5069283;28;20032;-23
2021/09/17 08:59:59;;;;;;;18.45;12.32;;;;;;;25.17;43.96;99966.19;5051660;28;20056;-23
2021/09/17 09:02:28;;;;;;;14.98;11.27;;;;;;;25.40;43.88;99968.81;5069593;28;20547;-23
2021/09/17 09:04:55;;;;;;;15.35;11.85;;;;;;;25.89;42.39;99969.41;5069360;28;20131;-23
2021/09/17 09:07:26;;;;;;;15.25;11.30;;;;;;;25.92;42.25;99946.13;5069597;28;20037;-23
2021/09/17 09:09:52;;;;;;;17.05;10.65;;;;;;;26.32;41.69;99949.38;5069169;28;20515;-23
2021/09/17 09:12:18;;;;;;;13.52;9.75;;;;;;;26.30;41.03;99924.31;5051198;28;20480;-23
2021/09/17 09:14:43;;;;;;;15.55;9.93;;;;;;;26.83;40.42;99930.34;5069312;28;20028;-22
2021/09/17 09:17:09;;;;;;;15.85;10.80;;;;;;;26.48;40.46;99930.50;5069202;28;20024;-22
2021/09/17 09:19:35;;;;;;;12.43;10.15;;;;;;;26.64;40.79;99920.66;5051772;28;20020;-22
2021/09/17 09:22:08;;;;;;;19.20;11.93;;;;;;;26.81;40.00;99936.16;5069580;28;20035;-22
2021/09/17 09:24:42;;;;;;;17.25;12.25;;;;;;;26.69;39.48;99930.59;5068950;28;20062;-23
2021/09/17 09:27:14;;;;;;;15.30;11.90;;;;;;;26.69;39.70;99929.78;5069208;28;20035;-23
2021/09/17 09:29:41;;;;;;;15.18;11.93;;;;;;;26.40;39.34;99929.41;5069123;28;20446;-23
2021/09/17 09:32:07;;;;;;;16.45;11.18;;;;;;;26.03;40.32;99922.78;5069044;28;20036;-22
2021/09/17 09:34:50;;;;;;;15.85;11.32;;;;;;;26.05;39.52;99935.00;5068772;28;20051;-22
2021/09/17 09:37:20;;;;;;;15.90;12.25;;;;;;;26.42;40.92;99910.75;5069019;28;20416;-22
2021/09/17 09:39:56;;;;;;;14.32;9.90;;;;;;;26.64;39.82;99906.16;5051381;28;20028;-23
2021/09/17 09:42:44;;;;;;;16.95;12.20;;;;;;;26.98;38.26;99887.91;5068527;28;20119;-22
2021/09/17 09:45:11;;;;;;;15.73;10.88;;;;;;;27.62;37.39;99898.50;5068913;28;20035;-22
2021/09/17 09:47:40;;;;;;;14.93;10.87;;;;;;;28.00;36.29;99894.72;5068801;28;20166;-22
2021/09/17 09:50:14;;;;;;;14.98;11.00;;;;;;;28.22;36.96;99892.72;5068609;28;20333;-22
2021/09/17 09:52:39;;;;;;;13.00;10.07;;;;;;;28.42;35.33;99893.72;5068960;28;20032;-22
2021/09/17 09:55:06;;;;;;;13.65;9.35;;;;;;;27.58;36.45;99872.94;5069019;28;20029;-22
2021/09/17 09:57:32;;;;;;;10.25;8.80;;;;;;;27.60;36.95;99892.56;5068833;28;20041;-20
2021/09/17 09:59:59;;;;;;;14.15;9.00;;;;;;;27.64;36.68;99874.31;5068746;28;20056;-21
2021/09/17 10:02:25;;;;;;;12.27;8.77;;;;;;;27.95;35.81;99870.28;5068621;28;20040;-21
2021/09/17 10:04:52;;;;;;;14.40;9.60;;;;;;;28.18;35.93;99881.63;5050940;28;20626;-21
2021/09/17 10:07:18;;;;;;;12.13;9.23;;;;;;;28.45;35.62;99885.59;5051029;28;20032;-21
2021/09/17 10:09:43;;;;;;;14.27;10.07;;;;;;;28.53;34.51;99888.63;5068981;28;20112;-21
2021/09/17 10:12:10;;;;;;;11.70;9.43;;;;;;;28.20;35.00;99870.31;5068832;28;20411;-21
2021/09/17 10:14:35;;;;;;;12.40;9.25;;;;;;;28.59;34.06;99868.84;5068532;28;20025;-21
2021/09/17 10:17:09;;;;;;;12.10;9.18;;;;;;;29.11;32.26;99861.75;5034251;28;20039;-21
2021/09/17 10:19:35;;;;;;;15.55;8.93;;;;;;;29.71;34.49;99850.03;5034779;28;20016;-21
2021/09/17 10:22:01;;;;;;;10.37;8.53;;;;;;;28.93;33.19;99846.69;5050809;28;20385;-22
2021/09/17 10:24:26;;;;;;;11.77;8.88;;;;;;;28.82;34.34;99844.41;5068491;28;20056;-21
2021/09/17 10:27:00;;;;;;;12.77;8.75;;;;;;;29.22;34.12;99840.09;5068619;28;20111;-21
2021/09/17 10:29:56;;;;;;;13.05;9.57;;;;;;;29.85;32.04;99850.41;5068573;28;20028;-21
2021/09/17 10:32:32;;;;;;;11.40;8.27;;;;;;;29.89;30.69;99845.00;5061505;28;20047;-21
2021/09/17 10:35:12;;;;;;;13.20;8.95;;;;;;;29.86;31.17;99832.75;5068484;28;20088;-21
2021/09/17 10:38:04;;;;;;;13.07;9.00;;;;;;;30.38;31.14;99826.19;5068598;28;20047;-21
2021/09/17 10:40:55;;;;;;;10.85;8.05;;;;;;;30.49;29.85;99817.38;5068278;28;20029;-21
2021/09/17 10:43:26;;;;;;;11.05;8.27;;;;;;;30.34;28.36;99836.31;5068506;28;20058;-21
2021/09/17 10:46:29;;;;;;;10.85;7.85;;;;;;;30.41;28.27;99822.69;5068295;28;20115;-21
2021/09/17 10:48:56;;;;;;;8.55;7.28;;;;;;;30.72;28.26;99807.25;5068335;28;20218;-21
2021/09/17 10:51:38;;;;;;;11.85;7.03;;;;;;;30.94;28.80;99814.03;5068467;28;20035;-21
2021/09/17 10:54:05;;;;;;;10.02;7.55;;;;;;;30.15;29.15;99805.97;5068520;28;20040;-21
2021/09/17 10:56:49;;;;;;;10.40;7.43;;;;;;;31.01;28.38;99825.16;5068282;28;20063;-21
2021/09/17 10:59:30;;;;;;;12.07;8.10;;;;;;;30.93;29.94;99811.63;5068076;28;20088;-21
2021/09/17 11:02:07;;;;;;;9.18;6.90;;;;;;;30.40;29.28;99812.88;5071510;28;20043;-21
2021/09/17 11:04:40;;;;;;;11.50;7.78;;;;;;;30.54;28.55;99812.38;5071892;28;20036;-21
2021/09/17 11:07:21;;;;;;;13.15;7.70;;;;;;;31.12;28.67;99810.81;5071944;28;20400;-21
2021/09/17 11:09:48;;;;;;;13.90;7.80;;;;;;;31.45;27.26;99810.28;5071740;28;20059;-21
2021/09/17 11:12:17;;;;;;;10.65;8.10;;;;;;;31.69;27.94;99789.84;5071585;28;20024;-21